Terminal Aerodrome Forecast
Issued by NWS

Home | Current Version | Previous Version | Text Only | Print | Product List | Glossary On
Versions: 1 2 3 4 5 6 7 8 9 10 11 12 13 14
000
FTUS42 KMLB 031749
TAFTIX
TAF
KTIX 031749Z 0318/0418 23012G20KT P6SM VCSH SCT015 BKN050 OVC120
      TEMPO 0318/0320 -SHRA BKN015
     FM032300 22005KT P6SM OVC120
     FM041400 22010KT P6SM SCT030 SCT100 OVC250=

USA.gov is the U.S. government's official web portal to all federal, state and local government web resources and services.